Time;durP1;ratioP1;P1;durP2;ratioP2;P2;SDS_P1;SDS_P2;PMS_P1;PMS_P2;Temp;Humidity;BMP_temperature;BMP_pressure;BME280_temperature;BME280_humidity;BME280_pressure;Samples;Min_cycle;Max_cycle;Signal;HPM_P1;HPM_P2
2022/01/30 00:01:03;;;;;;;;;;;-2.20;84.00;;;-3.68;80.03;96323.31;3935843;35;20210;-89
2022/01/30 00:03:33;;;;;;;;;;;-2.20;84.00;;;-3.68;80.13;96325.16;3956445;35;20226;-89
2022/01/30 00:06:02;;;;;;;;;;;-2.20;84.00;;;-3.68;80.22;96317.13;3977506;35;20257;-88
2022/01/30 00:08:30;;;;;;;;;;;-2.20;84.00;;;-3.70;80.03;96320.81;3936302;35;20112;-88
2022/01/30 00:11:07;;;;;;;;;;;-2.20;84.00;;;-3.72;79.86;96319.31;3937796;35;20257;-88
2022/01/30 00:13:35;;;;;;;;;;;-2.20;84.00;;;-3.71;79.97;96313.81;3958212;35;20229;-89
2022/01/30 00:16:07;;;;;;;;;;;-2.10;84.10;;;-3.68;80.15;96311.78;3957981;35;20114;-88
2022/01/30 00:18:49;;;;;;;;;;;-2.20;84.00;;;-3.68;80.31;96303.75;3937093;35;20547;-89
2022/01/30 00:21:30;;;;;;;;;;;-2.20;84.10;;;-3.68;80.25;96303.75;3957573;35;19906;-88
2022/01/30 00:24:03;;;;;;;;;;;-2.20;84.00;;;-3.68;80.01;96290.38;3957159;35;20236;-88
2022/01/30 00:26:35;;;;;;;;;;;-2.20;84.10;;;-3.68;80.02;96290.38;3957291;35;20230;-88
2022/01/30 00:29:03;;;;;;;;;;;-2.10;85.00;;;-3.68;80.35;96290.38;3998031;35;20224;-88
2022/01/30 00:31:33;;;;;;;;;;;-2.10;84.30;;;-3.69;80.12;96284.19;3984561;35;20240;-88
2022/01/30 00:34:03;;;;;;;;;;;-2.10;84.20;;;-3.69;80.06;96284.19;3984073;35;19912;-89
2022/01/30 00:36:32;;;;;;;;;;;-2.10;84.10;;;-3.70;80.12;96272.66;3962719;35;19929;-88
2022/01/30 00:39:02;;;;;;;;;;;-2.20;84.10;;;-3.68;80.04;96279.69;3983088;35;20205;-88
2022/01/30 00:41:35;;;;;;;;;;;-2.10;84.20;;;-3.69;80.07;96278.84;3961863;35;20242;-89
2022/01/30 00:44:05;;;;;;;;;;;-2.10;84.20;;;-3.69;79.42;96276.16;3982843;35;19928;-88
2022/01/30 00:46:34;;;;;;;;;;;-2.10;84.10;;;-3.67;80.34;96278.66;3961763;35;19913;-88
2022/01/30 00:49:05;;;;;;;;;;;-2.20;84.00;;;-3.67;79.79;96270.63;3983130;34;19905;-89
2022/01/30 00:51:38;;;;;;;;;;;-2.20;84.00;;;-3.68;80.16;96260.97;3983107;35;20217;-88
2022/01/30 00:54:10;;;;;;;;;;;-2.20;84.10;;;-3.72;80.06;96258.63;3957084;35;20213;-89
2022/01/30 00:56:39;;;;;;;;;;;-2.20;84.00;;;-3.67;80.18;96259.91;3977012;35;19913;-88
2022/01/30 00:59:14;;;;;;;;;;;-2.20;84.00;;;-3.70;79.78;96261.97;3964593;35;20490;-89
2022/01/30 01:01:52;;;;;;;;;;;-2.10;84.10;;;-3.69;80.13;96262.78;3930742;35;20213;-88
2022/01/30 01:04:22;;;;;;;;;;;-2.10;84.10;;;-3.68;79.71;96260.97;3937628;35;19906;-88
2022/01/30 01:06:52;;;;;;;;;;;-2.10;84.10;;;-3.68;80.01;96252.94;3937535;35;20237;-88
2022/01/30 01:09:31;;;;;;;;;;;-2.10;84.10;;;-3.68;80.09;96251.06;3952982;35;19906;-88
2022/01/30 01:12:37;;;;;;;;;;;-2.10;84.00;;;-3.67;79.55;96246.53;3985873;35;19905;-88
2022/01/30 01:23:21;;;;;;;;;;;-2.10;84.10;;;-3.66;79.68;96210.75;3942317;35;20244;-88
2022/01/30 01:23:51;;;;;;;;;;;-2.10;84.00;;;-3.68;79.85;96199.44;3967774;35;19912;-88
2022/01/30 01:26:30;;;;;;;;;;;-2.10;84.00;;;-3.66;79.92;96189.34;3989038;35;20213;-88
2022/01/30 01:29:06;;;;;;;;;;;-2.10;84.00;;;-3.66;79.85;96184.00;4006527;34;20213;-89
2022/01/30 01:31:36;;;;;;;;;;;-2.10;83.90;;;-3.66;79.96;96175.97;3987905;35;19929;-89
2022/01/30 01:36:52;;;;;;;;;;;-2.10;84.00;;;-3.64;79.48;96187.34;3962904;35;19905;-88
2022/01/30 01:39:28;;;;;;;;;;;-2.10;84.00;;;-3.65;79.76;96194.53;3987614;35;20024;-88
2022/01/30 01:41:58;;;;;;;;;;;-2.10;83.90;;;-3.64;79.69;96181.97;3966849;35;19911;-88
2022/01/30 01:44:39;;;;;;;;;;;-2.10;83.90;;;-3.64;79.81;96168.59;3956579;35;20254;-88
2022/01/30 01:47:11;;;;;;;;;;;-2.10;83.90;;;-3.63;79.53;96170.25;3962451;35;19939;-88
2022/01/30 01:49:41;;;;;;;;;;;-2.10;83.80;;;-3.63;79.77;96159.56;3961280;35;20246;-89
2022/01/30 01:52:21;;;;;;;;;;;-2.10;83.80;;;-3.64;79.86;96157.91;3939371;35;20677;-89
2022/01/30 01:54:53;;;;;;;;;;;-2.10;83.70;;;-3.63;79.58;96146.19;3939392;35;19905;-88
2022/01/30 01:57:24;;;;;;;;;;;-2.10;83.70;;;-3.64;79.79;96140.03;3960311;34;20174;-88
2022/01/30 01:59:59;;;;;;;;;;;-2.10;83.80;;;-3.62;79.88;96134.47;3961242;35;20243;-88
2022/01/30 02:02:44;;;;;;;;;;;-2.10;83.80;;;-3.63;79.51;96127.47;3962520;35;19913;-89
2022/01/30 02:05:14;;;;;;;;;;;-2.10;83.70;;;-3.62;79.50;96129.13;3962310;35;19906;-88
2022/01/30 02:10:49;;;;;;;;;;;-2.10;83.70;;;-3.62;79.65;96115.75;3926674;35;20255;-88
2022/01/30 02:25:15;;;;;;;;;;;-2.10;83.60;;;-3.61;79.65;96063.91;3980853;35;19928;-88
2022/01/30 02:27:46;;;;;;;;;;;-2.10;83.60;;;-3.61;79.65;96063.91;3938307;35;19905;-89
2022/01/30 02:30:19;;;;;;;;;;;-2.10;83.60;;;-3.62;79.79;96056.88;3958354;35;20217;-89
2022/01/30 02:32:55;;;;;;;;;;;-2.10;83.60;;;-3.61;79.77;96045.16;3959937;35;20231;-89
2022/01/30 02:35:30;;;;;;;;;;;-2.10;83.70;;;-3.62;79.53;96033.66;3938336;35;20257;-89
2022/01/30 02:38:18;;;;;;;;;;;-2.10;83.60;;;-3.62;79.61;96028.31;3980510;35;20215;-89
2022/01/30 02:41:00;;;;;;;;;;;-2.10;83.70;;;-3.62;79.64;96016.75;3959027;35;19906;-88
2022/01/30 02:43:47;;;;;;;;;;;-2.10;83.60;;;-3.61;79.35;96021.09;3959751;35;20213;-87
2022/01/30 02:46:28;;;;;;;;;;;-2.10;83.70;;;-3.61;79.91;96019.22;3960903;34;19921;-87
2022/01/30 02:49:12;;;;;;;;;;;-2.10;83.70;;;-3.61;79.62;96013.88;3983274;35;20209;-89
2022/01/30 02:51:48;;;;;;;;;;;-2.10;83.70;;;-3.61;79.84;96018.41;3961716;35;19970;-89
2022/01/30 02:54:19;;;;;;;;;;;-2.10;83.80;;;-3.61;79.55;96007.72;3940216;35;19914;-89
2022/01/30 02:56:51;;;;;;;;;;;-2.10;83.70;;;-3.61;79.26;96008.53;3961262;35;20222;-88
2022/01/30 02:59:35;;;;;;;;;;;-2.10;83.60;;;-3.61;79.48;95999.69;3959518;35;19906;-88
2022/01/30 03:02:07;;;;;;;;;;;-2.10;83.60;;;-3.61;79.54;95992.47;3959586;35;20123;-89
2022/01/30 03:04:40;;;;;;;;;;;-2.10;84.40;;;-3.61;79.33;95975.59;3958244;35;20237;-89
2022/01/30 03:07:12;;;;;;;;;;;-2.10;83.60;;;-3.61;79.41;95960.38;3991951;34;20226;-89
2022/01/30 03:09:58;;;;;;;;;;;-2.10;83.60;;;-3.61;79.55;95960.38;3958578;35;20221;-89
2022/01/30 03:12:31;;;;;;;;;;;-2.10;83.60;;;-3.61;79.97;95954.19;3937670;35;20139;-89
2022/01/30 03:15:08;;;;;;;;;;;-2.10;83.70;;;-3.62;79.32;95956.06;3979666;35;20220;-89
2022/01/30 03:17:49;;;;;;;;;;;-2.10;83.70;;;-3.62;79.67;95945.38;3945898;35;20235;-88
2022/01/30 03:20:21;;;;;;;;;;;-2.10;83.70;;;-3.62;79.43;95920.44;3960041;35;19913;-89
2022/01/30 03:22:56;;;;;;;;;;;-2.10;83.70;;;-3.61;79.41;95914.06;3983949;35;20210;-89
2022/01/30 03:25:30;;;;;;;;;;;-2.10;83.70;;;-3.61;79.70;95912.22;4006034;34;19913;-89
2022/01/30 03:28:42;;;;;;;;;;;-2.10;83.60;;;-3.61;79.47;95895.34;3963410;35;20227;-89
2022/01/30 03:31:29;;;;;;;;;;;-2.10;83.70;;;-3.61;79.68;95890.00;3963570;35;20216;-88
2022/01/30 03:34:02;;;;;;;;;;;-2.10;83.70;;;-3.60;79.55;95883.63;3962940;35;20219;-88
2022/01/30 03:36:45;;;;;;;;;;;-2.10;83.60;;;-3.62;79.65;95866.94;3984153;35;19905;-89
2022/01/30 03:39:16;;;;;;;;;;;-2.10;83.70;;;-3.62;79.04;95865.09;3984254;35;20244;-88
2022/01/30 03:41:53;;;;;;;;;;;-2.10;83.70;;;-3.62;79.58;95862.44;3963632;35;19905;-90
2022/01/30 03:44:27;;;;;;;;;;;-2.10;83.70;;;-3.62;79.58;95856.22;3961757;35;19913;-88
2022/01/30 03:47:04;;;;;;;;;;;-2.10;83.70;;;-3.62;79.12;95848.22;3942880;35;20219;-89
2022/01/30 03:49:44;;;;;;;;;;;-2.10;83.60;;;-3.63;79.64;95842.03;3973928;35;19913;-88
2022/01/30 03:52:23;;;;;;;;;;;-2.10;83.60;;;-3.61;79.46;95837.31;3969521;35;19905;-88
2022/01/30 03:55:09;;;;;;;;;;;-2.10;83.70;;;-3.61;79.69;95829.28;3948033;35;19916;-89
2022/01/30 03:57:44;;;;;;;;;;;-2.10;83.60;;;-3.60;79.65;95827.44;3970347;35;20225;-89
2022/01/30 04:00:20;;;;;;;;;;;-2.10;83.60;;;-3.61;79.55;95810.53;3975383;35;19906;-88
2022/01/30 04:02:53;;;;;;;;;;;-2.10;83.60;;;-3.61;79.81;95807.88;3975271;35;20210;-89
2022/01/30 04:05:37;;;;;;;;;;;-2.10;83.60;;;-3.61;79.51;95794.50;3953519;35;20128;-88
2022/01/30 04:08:17;;;;;;;;;;;-2.10;83.60;;;-3.60;79.46;95781.97;3954632;35;19905;-89
2022/01/30 04:11:03;;;;;;;;;;;-2.10;83.60;;;-3.61;79.53;95769.59;3953651;35;19948;-88
2022/01/30 04:13:46;;;;;;;;;;;-2.10;83.50;;;-3.59;79.38;95778.28;3949905;35;20223;-89
2022/01/30 04:16:22;;;;;;;;;;;-2.10;83.50;;;-3.60;79.59;95779.28;3952099;35;19930;-89
2022/01/30 04:19:06;;;;;;;;;;;-2.10;83.50;;;-3.60;79.56;95773.94;3975667;35;20562;-89
2022/01/30 04:22:03;;;;;;;;;;;-2.10;83.50;;;-3.60;79.49;95758.69;3954527;35;20119;-89
2022/01/30 04:24:57;;;;;;;;;;;-2.10;83.50;;;-3.61;79.28;95750.88;3976891;35;19906;-88
2022/01/30 04:27:53;;;;;;;;;;;-2.10;83.50;;;-3.61;79.77;95757.03;3976227;35;20242;-88
2022/01/30 04:30:49;;;;;;;;;;;-2.10;83.50;;;-3.60;79.52;95752.53;3960209;35;19912;-87
2022/01/30 04:33:39;;;;;;;;;;;-2.10;83.50;;;-3.61;79.30;95756.22;3982833;35;19913;-89
2022/01/30 04:36:54;;;;;;;;;;;-2.10;83.50;;;-3.60;79.74;95747.19;4002822;35;19905;-88
2022/01/30 04:40:14;;;;;;;;;;;-2.10;83.50;;;-3.60;79.34;95729.28;3983302;35;20208;-89
2022/01/30 04:53:05;;;;;;;;;;;-2.10;83.50;;;-3.60;79.71;95710.53;3962122;35;19906;-88
2022/01/30 04:59:14;;;;;;;;;;;-2.10;83.60;;;-3.60;79.49;95715.91;3962151;35;20231;-89
2022/01/30 05:02:33;;;;;;;;;;;-2.10;83.50;;;-3.59;79.64;95708.72;3983681;35;20218;-89
2022/01/30 05:06:01;;;;;;;;;;;-2.10;83.50;;;-3.60;79.58;95696.34;3942561;35;19910;-89
2022/01/30 05:09:09;;;;;;;;;;;-2.10;83.50;;;-3.60;79.32;95697.16;3962793;35;19918;-89
2022/01/30 05:12:37;;;;;;;;;;;-2.10;83.50;;;-3.60;79.19;95677.63;3962539;35;20217;-89
2022/01/30 05:15:56;;;;;;;;;;;-2.10;83.50;;;-3.60;79.44;95677.63;3965310;35;20212;-88
2022/01/30 05:18:53;;;;;;;;;;;-2.10;83.40;;;-3.59;79.41;95676.59;3985262;35;19929;-89
2022/01/30 05:21:55;;;;;;;;;;;-2.10;83.50;;;-3.60;79.06;95666.94;3964430;35;20256;-88
2022/01/30 05:32:18;;;;;;;;;;;-2.10;83.40;;;-3.59;79.98;95660.56;4192095;29;19905;-89
2022/01/30 05:35:11;;;;;;;;;;;-2.10;83.40;;;-3.59;79.52;95652.53;4011301;34;20207;-89
2022/01/30 05:37:58;;;;;;;;;;;-2.10;83.40;;;-3.60;79.15;95640.97;4018669;34;19904;-90
2022/01/30 05:40:45;;;;;;;;;;;-2.10;83.40;;;-3.62;79.08;95629.69;4038175;34;19975;-89
2022/01/30 05:43:42;;;;;;;;;;;-2.10;83.40;;;-3.60;79.45;95632.16;4018370;34;20204;-89
2022/01/30 05:46:34;;;;;;;;;;;-2.10;83.40;;;-3.59;79.21;95636.47;4058744;34;19905;-88
2022/01/30 05:49:21;;;;;;;;;;;-2.10;83.50;;;-3.58;79.68;95640.81;4059421;34;20120;-89
2022/01/30 05:52:10;;;;;;;;;;;-2.10;83.40;;;-3.61;79.53;95639.31;4015348;34;20210;-89
2022/01/30 05:54:58;;;;;;;;;;;-2.10;83.40;;;-3.59;79.16;95631.13;4037110;34;19905;-89
2022/01/30 05:57:28;;;;;;;;;;;-2.10;83.40;;;-3.59;79.19;95655.19;4013651;34;19905;-89
2022/01/30 05:59:58;;;;;;;;;;;-2.10;83.40;;;-3.59;79.39;95648.00;4014225;34;19904;-89
2022/01/30 06:02:50;;;;;;;;;;;-2.10;83.50;;;-3.61;79.37;95644.69;4035835;34;20209;-90
2022/01/30 06:05:22;;;;;;;;;;;-2.10;83.40;;;-3.58;79.13;95651.50;4014010;34;20232;-89
2022/01/30 06:07:53;;;;;;;;;;;-2.10;83.40;;;-3.59;79.48;95652.53;4035269;34;19904;-89
2022/01/30 06:10:24;;;;;;;;;;;-2.10;83.40;;;-3.59;79.21;95649.84;4035270;34;20222;-90
2022/01/30 06:12:53;;;;;;;;;;;-2.10;83.40;;;-3.60;79.37;95653.53;4013830;34;19905;-88
2022/01/30 06:15:21;;;;;;;;;;;-2.10;83.40;;;-3.58;79.34;95643.47;4017338;34;19905;-89
2022/01/30 06:17:55;;;;;;;;;;;-2.10;83.40;;;-3.59;79.13;95631.13;4037632;34;20236;-88
2022/01/30 06:20:42;;;;;;;;;;;-2.10;83.30;;;-3.57;79.28;95634.44;4060279;34;20253;-89
2022/01/30 06:23:30;;;;;;;;;;;-2.00;83.30;;;-3.58;79.62;95633.59;4037789;34;19904;-89
2022/01/30 06:26:17;;;;;;;;;;;-2.00;83.30;;;-3.57;79.06;95634.44;4037169;34;20233;-89
2022/01/30 06:29:18;;;;;;;;;;;-2.10;83.30;;;-3.57;79.21;95639.78;4008892;34;20219;-90
2022/01/30 06:32:07;;;;;;;;;;;-2.10;83.30;;;-3.56;79.33;95636.09;4039739;34;20206;-90
2022/01/30 06:34:54;;;;;;;;;;;-2.10;83.30;;;-3.59;79.47;95636.47;4038635;34;19905;-90
2022/01/30 06:37:28;;;;;;;;;;;-2.00;83.20;;;-3.58;79.42;95649.66;4037047;34;20222;-90
2022/01/30 06:40:21;;;;;;;;;;;-2.00;83.30;;;-3.56;79.09;95641.44;4011050;34;20466;-90
2022/01/30 06:43:19;;;;;;;;;;;-2.00;83.20;;;-3.56;79.24;95652.97;4009085;34;20237;-89
2022/01/30 06:46:06;;;;;;;;;;;-2.10;83.30;;;-3.55;79.21;95648.44;4007338;34;19912;-90
2022/01/30 06:48:53;;;;;;;;;;;-2.00;83.30;;;-3.56;79.28;95646.78;4004052;34;20222;-90
2022/01/30 06:51:40;;;;;;;;;;;-2.10;83.20;;;-3.54;79.35;95644.72;4002409;34;20134;-89
2022/01/30 06:54:11;;;;;;;;;;;-2.00;83.20;;;-3.58;79.25;95652.31;4008762;34;20229;-89
2022/01/30 06:56:59;;;;;;;;;;;-2.00;83.20;;;-3.55;79.35;95656.47;4028130;34;19912;-90
2022/01/30 07:00:23;;;;;;;;;;;-2.00;83.20;;;-3.54;79.37;95639.38;4027173;34;20207;-89
2022/01/30 07:03:16;;;;;;;;;;;-2.00;83.20;;;-3.53;79.13;95634.88;4026213;34;20203;-90
2022/01/30 07:06:08;;;;;;;;;;;-2.00;83.20;;;-3.54;79.13;95639.38;4026063;34;19912;-89
2022/01/30 07:09:06;;;;;;;;;;;-2.00;83.10;;;-3.52;79.07;95636.53;4003915;34;20232;-90
2022/01/30 07:11:34;;;;;;;;;;;-2.00;83.10;;;-3.53;79.11;95640.22;3981460;34;20247;-90
2022/01/30 07:14:05;;;;;;;;;;;-2.00;83.00;;;-3.55;78.96;95635.88;3979019;34;20242;-90
2022/01/30 07:16:44;;;;;;;;;;;-2.00;83.10;;;-3.51;78.83;95628.28;4004103;34;20203;-90
2022/01/30 07:19:13;;;;;;;;;;;-2.00;83.00;;;-3.51;79.00;95639.00;4026489;34;20547;-90
2022/01/30 07:21:42;;;;;;;;;;;-2.00;83.00;;;-3.50;79.10;95627.25;4025310;34;19927;-90
2022/01/30 07:24:10;;;;;;;;;;;-2.00;83.00;;;-3.50;78.85;95635.28;4004543;34;20219;-90
2022/01/30 07:31:17;;;;;;;;;;;-2.00;83.00;;;-3.49;78.94;95620.09;4027524;34;19901;-89
2022/01/30 07:33:55;;;;;;;;;;;-1.90;83.10;;;-3.50;79.19;95613.88;4005892;34;20488;-88
2022/01/30 07:36:24;;;;;;;;;;;-1.90;83.10;;;-3.47;79.31;95613.50;4052330;34;19911;-89
2022/01/30 07:38:53;;;;;;;;;;;-1.90;83.10;;;-3.47;78.97;95613.50;4012715;34;20446;-90
2022/01/30 07:41:26;;;;;;;;;;;-1.90;83.00;;;-3.48;79.11;95603.81;4033690;34;20238;-90
2022/01/30 07:44:02;;;;;;;;;;;-1.90;83.00;;;-3.46;78.91;95596.44;4030472;34;19911;-90
2022/01/30 07:46:50;;;;;;;;;;;-1.90;83.00;;;-3.46;79.03;95592.91;4007960;34;20212;-90
2022/01/30 07:49:19;;;;;;;;;;;-1.90;83.00;;;-3.46;79.03;95587.56;4034762;34;19905;-90
2022/01/30 07:51:48;;;;;;;;;;;-1.90;83.00;;;-3.46;79.30;95582.19;4011972;34;20235;-90
2022/01/30 07:54:17;;;;;;;;;;;-1.90;82.90;;;-3.45;78.87;95570.47;4033622;34;19908;-90
2022/01/30 07:56:45;;;;;;;;;;;-1.90;83.00;;;-3.45;78.87;95568.66;4011635;34;20207;-90
2022/01/30 07:59:14;;;;;;;;;;;-1.90;82.90;;;-3.42;78.77;95568.22;4012415;34;19905;-90
2022/01/30 08:01:44;;;;;;;;;;;-1.90;82.80;;;-3.43;78.97;95555.91;4011687;34;20547;-90
2022/01/30 08:04:12;;;;;;;;;;;-1.90;82.70;;;-3.44;78.98;95546.22;4029028;34;20218;-89
2022/01/30 08:06:41;;;;;;;;;;;-1.90;82.70;;;-3.39;78.65;95548.28;4032809;34;19919;-90
2022/01/30 08:09:13;;;;;;;;;;;-1.90;82.70;;;-3.39;78.54;95553.63;4012984;34;19904;-90
2022/01/30 08:11:47;;;;;;;;;;;-1.80;82.60;;;-3.40;78.65;95552.81;4034376;34;19911;-90
2022/01/30 08:14:25;;;;;;;;;;;-1.80;82.70;;;-3.33;78.85;95549.34;4034086;34;20533;-90
2022/01/30 08:16:55;;;;;;;;;;;-1.80;82.60;;;-3.30;78.44;95551.63;4012753;34;20094;-90
2022/01/30 08:19:25;;;;;;;;;;;-1.70;82.70;;;-3.30;78.56;95543.59;4036708;34;20236;-90
2022/01/30 08:21:56;;;;;;;;;;;-1.80;82.50;;;-3.29;78.77;95551.41;4036998;34;19912;-91
2022/01/30 08:24:25;;;;;;;;;;;-1.80;82.40;;;-3.26;78.52;95534.13;4036712;34;19904;-90
2022/01/30 08:26:53;;;;;;;;;;;-1.70;82.50;;;-3.27;78.15;95525.28;4014998;34;20217;-92
2022/01/30 08:29:27;;;;;;;;;;;-1.70;82.40;;;-3.20;78.20;95532.50;4015815;34;20545;-92
2022/01/30 08:35:52;;;;;;;;;;;-1.60;82.40;;;-3.02;77.94;95518.53;4037064;34;20208;-92
2022/01/30 08:43:39;;;;;;;;;;;-1.50;82.00;;;-2.84;77.35;95493.88;3982107;35;19912;-93
2022/01/30 08:46:08;;;;;;;;;;;-1.40;81.60;;;-2.79;77.64;95486.88;3985896;35;20258;-94
2022/01/30 08:48:38;;;;;;;;;;;-1.30;81.50;;;-2.76;77.38;95480.28;3989884;35;19912;-93
2022/01/30 08:51:07;;;;;;;;;;;-1.20;81.40;;;-2.67;77.05;95478.25;3988383;35;19912;-93
2022/01/30 08:53:44;;;;;;;;;;;-1.20;82.00;;;-2.61;77.20;95488.13;3989336;34;20307;-94
2022/01/30 08:56:13;;;;;;;;;;;-1.20;81.00;;;-2.56;77.05;95485.66;4010518;34;20590;-93
2022/01/30 08:58:42;;;;;;;;;;;-1.10;80.90;;;-2.52;76.91;95478.03;3990667;34;20214;-94
2022/01/30 09:01:32;;;;;;;;;;;-1.00;80.80;;;-2.51;77.04;95453.69;3994138;34;19905;-93
2022/01/30 09:13:47;;;;;;;;;;;-0.90;80.40;;;-2.35;76.61;95440.91;3941879;35;19910;-93
2022/01/30 09:16:16;;;;;;;;;;;-0.90;80.20;;;-2.32;76.11;95429.75;3958324;34;20244;-93
2022/01/30 09:18:45;;;;;;;;;;;-0.90;80.10;;;-2.31;76.05;95428.72;4040856;34;19904;-93
2022/01/30 09:37:43;;;;;;;;;;;-0.80;79.70;;;-2.24;75.81;95397.38;3883427;34;20232;-92
2022/01/30 09:52:11;;;;;;;;;;;-0.70;79.70;;;-2.27;76.15;95372.84;3849136;35;19921;-92
2022/01/30 09:58:22;;;;;;;;;;;-0.70;79.70;;;-2.25;76.30;95366.22;3957264;34;19912;-91
2022/01/30 10:01:03;;;;;;;;;;;-0.70;79.80;;;-2.26;76.26;95356.53;4013565;34;19904;-92
2022/01/30 10:03:36;;;;;;;;;;;-0.70;79.80;;;-2.29;76.02;95356.97;4036111;34;19919;-91
2022/01/30 10:06:13;;;;;;;;;;;-0.80;79.70;;;-2.32;76.49;95352.84;4057155;34;19904;-92
2022/01/30 10:09:31;;;;;;;;;;;-0.80;79.80;;;-2.34;76.45;95348.72;4036193;34;19912;-91
2022/01/30 10:12:19;;;;;;;;;;;-0.80;80.00;;;-2.36;76.67;95345.44;4016865;34;19908;-92
2022/01/30 10:15:33;;;;;;;;;;;-0.80;80.00;;;-2.32;76.89;95352.03;4038974;34;20230;-92
2022/01/30 10:21:49;;;;;;;;;;;-0.80;80.00;;;-2.33;76.74;95345.00;4015230;34;20214;-91
2022/01/30 10:25:03;;;;;;;;;;;-0.80;80.00;;;-2.29;76.43;95343.56;4036757;34;20221;-92
2022/01/30 10:28:08;;;;;;;;;;;-0.80;80.00;;;-2.32;76.55;95362.75;4043339;34;20200;-92
2022/01/30 10:34:23;;;;;;;;;;;-0.80;80.00;;;-2.37;76.87;95354.50;4019219;34;19955;-91
2022/01/30 10:37:18;;;;;;;;;;;-0.80;80.10;;;-2.38;76.38;95350.16;4013756;34;20238;-91
2022/01/30 10:40:11;;;;;;;;;;;-0.80;80.20;;;-2.38;76.77;95358.22;4014249;34;20575;-91
2022/01/30 10:43:17;;;;;;;;;;;-0.80;80.20;;;-2.42;76.94;95357.81;4036897;34;20206;-91
2022/01/30 10:49:36;;;;;;;;;;;-0.90;80.50;;;-2.42;76.66;95357.00;4008975;34;19913;-90
2022/01/30 10:52:19;;;;;;;;;;;-0.90;80.70;;;-2.41;76.96;95338.03;4008786;34;20255;-91
2022/01/30 10:55:06;;;;;;;;;;;-0.90;80.60;;;-2.39;76.98;95335.16;4029302;34;19909;-91
2022/01/30 10:57:56;;;;;;;;;;;-0.90;80.60;;;-2.36;76.53;95329.34;4009580;34;20611;-91
2022/01/30 11:00:43;;;;;;;;;;;-0.80;80.50;;;-2.35;76.93;95326.47;4010266;34;20237;-91
2022/01/30 11:03:38;;;;;;;;;;;-0.80;80.40;;;-2.34;76.78;95321.94;4010444;34;20201;-91
2022/01/30 11:06:52;;;;;;;;;;;-0.80;80.40;;;-2.36;76.84;95318.63;4010190;34;19912;-91
2022/01/30 11:09:39;;;;;;;;;;;-0.80;80.20;;;-2.37;76.75;95307.09;4010778;34;20242;-90
2022/01/30 11:12:13;;;;;;;;;;;-0.80;80.20;;;-2.39;76.94;95311.03;4011027;34;20223;-91
2022/01/30 11:15:15;;;;;;;;;;;-0.90;80.30;;;-2.43;76.92;95301.75;4035656;34;20237;-91
2022/01/30 11:17:51;;;;;;;;;;;-0.90;80.40;;;-2.45;77.01;95293.91;4016301;34;19905;-92
2022/01/30 11:20:47;;;;;;;;;;;-0.90;80.60;;;-2.48;76.82;95287.13;4014748;34;19904;-92
2022/01/30 11:23:27;;;;;;;;;;;-0.90;80.80;;;-2.48;77.21;95271.03;4002809;34;19905;-91
2022/01/30 11:26:09;;;;;;;;;;;-0.90;80.80;;;-2.50;77.38;95265.06;4012295;34;19904;-91
2022/01/30 11:28:49;;;;;;;;;;;-0.90;81.00;;;-2.48;77.21;95273.72;4012639;34;20551;-91
2022/01/30 11:31:30;;;;;;;;;;;-0.90;80.80;;;-2.47;77.00;95263.84;4034220;34;19905;-91
2022/01/30 11:34:03;;;;;;;;;;;-0.90;80.80;;;-2.48;77.41;95267.56;4012493;34;20196;-92
2022/01/30 11:36:37;;;;;;;;;;;-0.90;80.80;;;-2.48;77.19;95284.44;4014133;34;20554;-92
2022/01/30 11:39:23;;;;;;;;;;;-0.90;80.80;;;-2.48;77.36;95265.69;4013536;34;20466;-92
2022/01/30 11:42:31;;;;;;;;;;;-0.90;80.90;;;-2.49;77.24;95269.41;4016311;34;19905;-92
2022/01/30 11:45:17;;;;;;;;;;;-0.90;80.80;;;-2.49;77.14;95256.00;4067756;29;20217;-83
2022/01/30 11:47:48;;;;;;;;;;;-0.90;80.90;;;-2.50;77.14;95246.31;4059486;34;20219;-83
2022/01/30 11:50:20;;;;;;;;;;;-1.00;80.80;;;-2.50;77.15;95251.66;4013408;34;20500;-84
2022/01/30 11:52:58;;;;;;;;;;;-1.00;80.80;;;-2.51;77.10;95254.56;4036336;34;19904;-83
2022/01/30 11:55:54;;;;;;;;;;;-1.00;80.80;;;-2.53;77.54;95248.59;4034114;34;20212;-83
2022/01/30 11:58:49;;;;;;;;;;;-1.00;81.00;;;-2.53;77.78;95243.25;4013596;34;19905;-83
2022/01/30 12:01:36;;;;;;;;;;;-1.00;81.00;;;-2.56;77.30;95249.84;4011910;34;20246;-83
2022/01/30 12:04:13;;;;;;;;;;;-1.00;81.10;;;-2.57;77.24;95247.38;4034206;34;20244;-83
2022/01/30 12:06:47;;;;;;;;;;;-1.00;81.20;;;-2.60;77.66;95245.94;4011622;34;20265;-83
2022/01/30 12:09:22;;;;;;;;;;;-1.10;81.20;;;-2.62;77.72;95250.69;4034124;34;20218;-83
2022/01/30 12:12:08;;;;;;;;;;;-1.10;81.30;;;-2.62;77.55;95248.00;4011907;34;20245;-83
2022/01/30 12:14:57;;;;;;;;;;;-1.10;81.50;;;-2.64;77.84;95255.44;4025996;34;19912;-83
2022/01/30 12:17:50;;;;;;;;;;;-1.10;81.60;;;-2.65;77.92;95243.09;4025385;34;20247;-83
2022/01/30 12:20:19;;;;;;;;;;;-1.10;81.60;;;-2.66;77.71;95244.13;3977748;35;19905;-83
2022/01/30 12:22:48;;;;;;;;;;;-1.10;81.70;;;-2.67;77.65;95232.56;3978024;35;20234;-83
2022/01/30 12:25:37;;;;;;;;;;;-1.10;81.70;;;-2.67;77.93;95237.94;3977514;35;19905;-83
2022/01/30 12:28:14;;;;;;;;;;;-1.10;81.90;;;-2.67;77.87;95226.41;3998749;34;19905;-83
2022/01/30 12:30:52;;;;;;;;;;;-1.20;81.70;;;-2.67;78.02;95231.75;3992734;34;20225;-83
2022/01/30 12:33:42;;;;;;;;;;;-1.20;81.80;;;-2.68;78.07;95233.59;4001092;34;19912;-83
2022/01/30 12:36:19;;;;;;;;;;;-1.10;82.70;;;-2.69;78.19;95229.28;3999997;34;19912;-83
2022/01/30 12:38:55;;;;;;;;;;;-1.20;81.90;;;-2.68;78.13;95235.47;4000381;34;19911;-83
2022/01/30 12:41:24;;;;;;;;;;;-1.20;81.90;;;-2.70;78.09;95248.25;4025171;34;19904;-83
2022/01/30 12:43:56;;;;;;;;;;;-1.20;82.00;;;-2.69;78.36;95228.47;4000031;34;20623;-83
2022/01/30 12:46:27;;;;;;;;;;;-1.20;82.00;;;-2.71;78.32;95225.16;4000225;34;20122;-84
2022/01/30 12:49:12;;;;;;;;;;;-1.20;82.10;;;-2.72;78.35;95228.88;4024346;34;19905;-83
2022/01/30 12:51:42;;;;;;;;;;;-1.20;82.10;;;-2.74;78.62;95218.38;4002367;34;20201;-83
2022/01/30 12:54:11;;;;;;;;;;;-1.20;82.10;;;-2.73;78.48;95233.44;4002404;34;19911;-83
2022/01/30 12:56:40;;;;;;;;;;;-1.20;82.20;;;-2.74;78.39;95231.78;4001799;34;20246;-83
2022/01/30 12:59:10;;;;;;;;;;;-1.20;82.20;;;-2.74;78.31;95230.94;4001903;34;20184;-83
2022/01/30 13:01:42;;;;;;;;;;;-1.20;82.30;;;-2.73;78.32;95229.91;4004490;34;20511;-83
2022/01/30 13:04:13;;;;;;;;;;;-1.20;82.20;;;-2.73;78.47;95237.94;4007672;34;20312;-83
2022/01/30 13:06:43;;;;;;;;;;;-1.20;82.20;;;-2.73;78.36;95238.78;4031716;34;20227;-83
2022/01/30 13:09:12;;;;;;;;;;;-1.20;82.30;;;-2.73;78.38;95221.88;4032299;34;19911;-82
2022/01/30 13:11:40;;;;;;;;;;;-1.20;82.30;;;-2.72;78.44;95234.22;4026497;34;20211;-83
2022/01/30 13:14:10;;;;;;;;;;;-1.20;82.30;;;-2.75;78.62;95226.63;4026888;34;20613;-83
2022/01/30 13:16:47;;;;;;;;;;;-1.20;82.20;;;-2.75;78.70;95240.00;4025984;34;19912;-83
2022/01/30 13:19:28;;;;;;;;;;;-1.20;82.30;;;-2.74;78.34;95245.16;4004729;34;19905;-83
2022/01/30 13:21:57;;;;;;;;;;;-1.20;82.30;;;-2.74;78.50;95245.16;4007586;34;20203;-83
2022/01/30 13:24:26;;;;;;;;;;;-1.20;82.30;;;-2.74;78.53;95241.66;4008298;34;20002;-83
2022/01/30 13:26:56;;;;;;;;;;;-1.20;82.30;;;-2.74;78.34;95247.84;4027417;34;19908;-83
2022/01/30 13:29:27;;;;;;;;;;;-1.20;82.40;;;-2.73;79.03;95254.03;4027050;34;20225;-83
2022/01/30 13:31:57;;;;;;;;;;;-1.20;82.30;;;-2.75;78.59;95245.38;4026728;34;19904;-83
2022/01/30 13:34:26;;;;;;;;;;;-1.20;82.30;;;-2.74;78.53;95247.00;4027356;34;20216;-83
2022/01/30 13:37:01;;;;;;;;;;;-1.20;82.30;;;-2.75;78.69;95231.97;4025655;34;20246;-83
2022/01/30 13:39:39;;;;;;;;;;;-1.20;82.40;;;-2.77;78.26;95234.88;4003553;34;20232;-82
2022/01/30 13:42:28;;;;;;;;;;;-1.20;82.30;;;-2.77;78.68;95233.00;4004184;34;19911;-82
2022/01/30 13:46:55;;;;;;;;;;;-1.20;82.30;;;-2.78;78.83;95233.22;4004558;34;20208;-82
2022/01/30 13:47:57;;;;;;;;;;;-1.30;82.40;;;-2.79;78.76;95229.75;4025810;34;20196;-83
2022/01/30 13:50:27;;;;;;;;;;;-1.30;82.50;;;-2.79;78.83;95234.25;4003547;34;19915;-82
2022/01/30 13:53:03;;;;;;;;;;;-1.30;82.50;;;-2.81;78.51;95231.81;4027133;34;19908;-82
2022/01/30 13:55:32;;;;;;;;;;;-1.30;82.50;;;-2.81;78.69;95239.84;4004219;34;20230;-82
2022/01/30 13:58:01;;;;;;;;;;;-1.30;82.60;;;-2.81;78.66;95239.00;4005708;34;19904;-82
2022/01/30 14:00:34;;;;;;;;;;;-1.30;82.60;;;-2.81;78.65;95257.75;4032478;34;20214;-82
2022/01/30 14:03:04;;;;;;;;;;;-1.30;82.70;;;-2.83;78.71;95247.25;4011259;34;19905;-82
2022/01/30 14:05:33;;;;;;;;;;;-1.30;82.80;;;-2.82;79.26;95258.78;4034500;34;20454;-82